sensor_id;sensor_type;location;lat;lon;timestamp;P1;durP1;ratioP1;P2;durP2;ratioP2
36423;SDS011;22458;45.328;9.514;2023-04-01T00:00:54;13.20;;;10.45;;
36423;SDS011;22458;45.328;9.514;2023-04-01T00:03:21;13.85;;;10.40;;
36423;SDS011;22458;45.328;9.514;2023-04-01T00:05:48;12.27;;;10.13;;
36423;SDS011;22458;45.328;9.514;2023-04-01T00:08:14;14.88;;;10.75;;
36423;SDS011;22458;45.328;9.514;2023-04-01T00:10:40;16.33;;;10.68;;
36423;SDS011;22458;45.328;9.514;2023-04-01T00:13:07;12.38;;;10.30;;
36423;SDS011;22458;45.328;9.514;2023-04-01T00:15:33;13.77;;;11.02;;
36423;SDS011;22458;45.328;9.514;2023-04-01T00:17:59;12.88;;;10.02;;
36423;SDS011;22458;45.328;9.514;2023-04-01T00:20:26;14.07;;;10.27;;
36423;SDS011;22458;45.328;9.514;2023-04-01T00:22:52;14.40;;;11.05;;
36423;SDS011;22458;45.328;9.514;2023-04-01T00:25:18;15.43;;;11.32;;
36423;SDS011;22458;45.328;9.514;2023-04-01T00:27:43;15.57;;;11.75;;
36423;SDS011;22458;45.328;9.514;2023-04-01T00:30:10;14.82;;;12.23;;
36423;SDS011;22458;45.328;9.514;2023-04-01T00:32:36;15.63;;;12.63;;
36423;SDS011;22458;45.328;9.514;2023-04-01T00:35:02;15.13;;;12.55;;
36423;SDS011;22458;45.328;9.514;2023-04-01T00:37:28;15.60;;;13.35;;
36423;SDS011;22458;45.328;9.514;2023-04-01T00:39:54;16.55;;;11.68;;
36423;SDS011;22458;45.328;9.514;2023-04-01T00:42:21;14.27;;;12.43;;
36423;SDS011;22458;45.328;9.514;2023-04-01T00:44:50;14.15;;;12.70;;
36423;SDS011;22458;45.328;9.514;2023-04-01T00:47:17;13.60;;;11.93;;
36423;SDS011;22458;45.328;9.514;2023-04-01T00:49:44;15.45;;;12.55;;
36423;SDS011;22458;45.328;9.514;2023-04-01T00:52:13;19.42;;;13.02;;
36423;SDS011;22458;45.328;9.514;2023-04-01T00:54:42;15.52;;;12.65;;
36423;SDS011;22458;45.328;9.514;2023-04-01T00:57:18;15.73;;;12.65;;
36423;SDS011;22458;45.328;9.514;2023-04-01T01:00:00;17.27;;;12.88;;
36423;SDS011;22458;45.328;9.514;2023-04-01T01:02:25;18.42;;;13.20;;
36423;SDS011;22458;45.328;9.514;2023-04-01T01:04:51;14.43;;;12.70;;
36423;SDS011;22458;45.328;9.514;2023-04-01T01:12:39;15.68;;;13.00;;
36423;SDS011;22458;45.328;9.514;2023-04-01T01:17:48;17.98;;;13.88;;
36423;SDS011;22458;45.328;9.514;2023-04-01T01:23:19;17.80;;;13.45;;
36423;SDS011;22458;45.328;9.514;2023-04-01T01:26:14;16.75;;;13.57;;
36423;SDS011;22458;45.328;9.514;2023-04-01T01:31:37;16.60;;;13.05;;
36423;SDS011;22458;45.328;9.514;2023-04-01T01:36:51;16.65;;;12.43;;
36423;SDS011;22458;45.328;9.514;2023-04-01T01:39:23;18.00;;;13.52;;
36423;SDS011;22458;45.328;9.514;2023-04-01T01:41:55;16.10;;;12.82;;
36423;SDS011;22458;45.328;9.514;2023-04-01T01:44:25;18.75;;;13.45;;
36423;SDS011;22458;45.328;9.514;2023-04-01T01:46:53;16.80;;;11.90;;
36423;SDS011;22458;45.328;9.514;2023-04-01T01:49:20;16.67;;;11.77;;
36423;SDS011;22458;45.328;9.514;2023-04-01T01:51:47;15.05;;;12.82;;
36423;SDS011;22458;45.328;9.514;2023-04-01T01:54:14;16.10;;;11.68;;
36423;SDS011;22458;45.328;9.514;2023-04-01T01:56:41;15.70;;;11.05;;
36423;SDS011;22458;45.328;9.514;2023-04-01T01:59:11;12.95;;;11.48;;
36423;SDS011;22458;45.328;9.514;2023-04-01T02:01:44;15.85;;;11.13;;
36423;SDS011;22458;45.328;9.514;2023-04-01T02:04:14;12.73;;;10.48;;
36423;SDS011;22458;45.328;9.514;2023-04-01T02:06:48;13.32;;;10.30;;
36423;SDS011;22458;45.328;9.514;2023-04-01T02:09:21;13.40;;;10.05;;
36423;SDS011;22458;45.328;9.514;2023-04-01T02:11:48;13.32;;;10.45;;
36423;SDS011;22458;45.328;9.514;2023-04-01T02:15:04;12.90;;;9.93;;
36423;SDS011;22458;45.328;9.514;2023-04-01T02:17:18;12.43;;;9.43;;
36423;SDS011;22458;45.328;9.514;2023-04-01T02:19:52;13.10;;;9.77;;
36423;SDS011;22458;45.328;9.514;2023-04-01T02:22:24;11.50;;;8.57;;
36423;SDS011;22458;45.328;9.514;2023-04-01T02:24:54;15.57;;;10.05;;
36423;SDS011;22458;45.328;9.514;2023-04-01T02:27:23;10.98;;;8.90;;
36423;SDS011;22458;45.328;9.514;2023-04-01T02:29:50;12.90;;;9.13;;
36423;SDS011;22458;45.328;9.514;2023-04-01T02:32:17;11.57;;;8.93;;
36423;SDS011;22458;45.328;9.514;2023-04-01T02:34:45;11.40;;;8.55;;
36423;SDS011;22458;45.328;9.514;2023-04-01T02:37:12;10.45;;;8.55;;
36423;SDS011;22458;45.328;9.514;2023-04-01T02:39:39;10.38;;;8.35;;
36423;SDS011;22458;45.328;9.514;2023-04-01T02:42:05;10.55;;;7.97;;
36423;SDS011;22458;45.328;9.514;2023-04-01T02:44:31;9.52;;;8.40;;
36423;SDS011;22458;45.328;9.514;2023-04-01T02:46:57;8.27;;;7.35;;
36423;SDS011;22458;45.328;9.514;2023-04-01T02:49:23;10.50;;;8.57;;
36423;SDS011;22458;45.328;9.514;2023-04-01T02:51:49;10.27;;;7.88;;
36423;SDS011;22458;45.328;9.514;2023-04-01T02:54:17;10.98;;;9.23;;
36423;SDS011;22458;45.328;9.514;2023-04-01T02:56:43;10.02;;;8.35;;
36423;SDS011;22458;45.328;9.514;2023-04-01T02:59:09;10.02;;;8.20;;
36423;SDS011;22458;45.328;9.514;2023-04-01T03:01:35;9.43;;;7.82;;
36423;SDS011;22458;45.328;9.514;2023-04-01T03:04:00;9.65;;;8.07;;
36423;SDS011;22458;45.328;9.514;2023-04-01T03:06:26;9.05;;;8.00;;
36423;SDS011;22458;45.328;9.514;2023-04-01T03:08:52;11.00;;;8.90;;
36423;SDS011;22458;45.328;9.514;2023-04-01T03:11:18;10.02;;;8.18;;
36423;SDS011;22458;45.328;9.514;2023-04-01T03:13:43;10.25;;;8.93;;
36423;SDS011;22458;45.328;9.514;2023-04-01T03:16:10;12.50;;;9.32;;
36423;SDS011;22458;45.328;9.514;2023-04-01T03:18:35;11.52;;;8.85;;
36423;SDS011;22458;45.328;9.514;2023-04-01T03:21:17;12.60;;;9.98;;
36423;SDS011;22458;45.328;9.514;2023-04-01T03:23:48;11.65;;;8.98;;
36423;SDS011;22458;45.328;9.514;2023-04-01T03:26:14;11.48;;;8.88;;
36423;SDS011;22458;45.328;9.514;2023-04-01T03:28:41;9.75;;;8.70;;
36423;SDS011;22458;45.328;9.514;2023-04-01T03:31:06;11.38;;;9.75;;
36423;SDS011;22458;45.328;9.514;2023-04-01T03:33:40;11.77;;;9.75;;
36423;SDS011;22458;45.328;9.514;2023-04-01T03:36:05;10.50;;;8.45;;
36423;SDS011;22458;45.328;9.514;2023-04-01T03:38:33;12.68;;;9.48;;
36423;SDS011;22458;45.328;9.514;2023-04-01T03:40:59;14.32;;;9.48;;
36423;SDS011;22458;45.328;9.514;2023-04-01T03:43:25;11.20;;;9.10;;
36423;SDS011;22458;45.328;9.514;2023-04-01T03:45:52;12.52;;;10.32;;
36423;SDS011;22458;45.328;9.514;2023-04-01T03:48:19;10.32;;;9.23;;
36423;SDS011;22458;45.328;9.514;2023-04-01T03:50:46;9.88;;;8.73;;
36423;SDS011;22458;45.328;9.514;2023-04-01T03:53:13;13.73;;;9.15;;
36423;SDS011;22458;45.328;9.514;2023-04-01T03:55:42;12.45;;;9.32;;
36423;SDS011;22458;45.328;9.514;2023-04-01T03:58:08;12.15;;;9.90;;
36423;SDS011;22458;45.328;9.514;2023-04-01T04:00:34;13.80;;;9.98;;
36423;SDS011;22458;45.328;9.514;2023-04-01T04:03:01;13.07;;;10.27;;
36423;SDS011;22458;45.328;9.514;2023-04-01T04:05:31;12.05;;;9.30;;
36423;SDS011;22458;45.328;9.514;2023-04-01T04:07:57;10.45;;;8.65;;
36423;SDS011;22458;45.328;9.514;2023-04-01T04:10:22;13.43;;;9.48;;
36423;SDS011;22458;45.328;9.514;2023-04-01T04:12:50;12.00;;;9.85;;
36423;SDS011;22458;45.328;9.514;2023-04-01T04:15:17;12.90;;;8.93;;
36423;SDS011;22458;45.328;9.514;2023-04-01T04:17:44;12.43;;;10.10;;
36423;SDS011;22458;45.328;9.514;2023-04-01T04:20:10;12.45;;;9.32;;
36423;SDS011;22458;45.328;9.514;2023-04-01T04:22:36;12.52;;;9.35;;
36423;SDS011;22458;45.328;9.514;2023-04-01T04:25:05;12.57;;;10.55;;
36423;SDS011;22458;45.328;9.514;2023-04-01T04:27:32;15.57;;;10.20;;
36423;SDS011;22458;45.328;9.514;2023-04-01T04:30:06;12.10;;;10.07;;
36423;SDS011;22458;45.328;9.514;2023-04-01T04:32:33;12.75;;;9.45;;
36423;SDS011;22458;45.328;9.514;2023-04-01T04:34:59;16.08;;;10.45;;
36423;SDS011;22458;45.328;9.514;2023-04-01T04:37:25;12.00;;;9.18;;
36423;SDS011;22458;45.328;9.514;2023-04-01T04:39:52;11.23;;;9.95;;
36423;SDS011;22458;45.328;9.514;2023-04-01T04:42:18;11.13;;;9.27;;
36423;SDS011;22458;45.328;9.514;2023-04-01T04:44:44;11.38;;;9.38;;
36423;SDS011;22458;45.328;9.514;2023-04-01T04:47:10;13.85;;;9.75;;
36423;SDS011;22458;45.328;9.514;2023-04-01T04:49:36;13.57;;;10.20;;
36423;SDS011;22458;45.328;9.514;2023-04-01T04:52:06;10.93;;;8.85;;
36423;SDS011;22458;45.328;9.514;2023-04-01T04:54:32;14.73;;;8.85;;
36423;SDS011;22458;45.328;9.514;2023-04-01T04:57:00;10.23;;;8.65;;
36423;SDS011;22458;45.328;9.514;2023-04-01T05:02:01;10.77;;;7.88;;
36423;SDS011;22458;45.328;9.514;2023-04-01T05:04:28;10.30;;;8.57;;
36423;SDS011;22458;45.328;9.514;2023-04-01T05:06:53;9.55;;;8.35;;
36423;SDS011;22458;45.328;9.514;2023-04-01T05:09:20;11.88;;;7.88;;
36423;SDS011;22458;45.328;9.514;2023-04-01T05:11:45;8.50;;;7.25;;
36423;SDS011;22458;45.328;9.514;2023-04-01T05:14:17;11.02;;;8.10;;
36423;SDS011;22458;45.328;9.514;2023-04-01T05:16:51;10.73;;;8.10;;
36423;SDS011;22458;45.328;9.514;2023-04-01T05:19:17;11.38;;;8.40;;
36423;SDS011;22458;45.328;9.514;2023-04-01T05:21:43;10.15;;;9.05;;
36423;SDS011;22458;45.328;9.514;2023-04-01T05:24:09;9.50;;;8.13;;
36423;SDS011;22458;45.328;9.514;2023-04-01T05:26:35;10.70;;;8.00;;
36423;SDS011;22458;45.328;9.514;2023-04-01T05:29:05;9.60;;;8.15;;
36423;SDS011;22458;45.328;9.514;2023-04-01T05:31:31;10.57;;;7.55;;
36423;SDS011;22458;45.328;9.514;2023-04-01T05:34:00;10.55;;;7.45;;
36423;SDS011;22458;45.328;9.514;2023-04-01T05:36:26;9.98;;;7.90;;
36423;SDS011;22458;45.328;9.514;2023-04-01T05:38:56;9.40;;;7.50;;
36423;SDS011;22458;45.328;9.514;2023-04-01T05:41:24;9.63;;;7.65;;
36423;SDS011;22458;45.328;9.514;2023-04-01T05:43:50;9.35;;;7.70;;
36423;SDS011;22458;45.328;9.514;2023-04-01T05:46:34;10.10;;;7.90;;
36423;SDS011;22458;45.328;9.514;2023-04-01T05:49:10;9.82;;;7.90;;
36423;SDS011;22458;45.328;9.514;2023-04-01T05:51:37;10.32;;;7.63;;
36423;SDS011;22458;45.328;9.514;2023-04-01T05:54:04;8.45;;;7.35;;
36423;SDS011;22458;45.328;9.514;2023-04-01T05:56:30;13.70;;;7.88;;
36423;SDS011;22458;45.328;9.514;2023-04-01T05:58:56;9.63;;;6.78;;
36423;SDS011;22458;45.328;9.514;2023-04-01T06:01:23;9.55;;;7.55;;
36423;SDS011;22458;45.328;9.514;2023-04-01T06:03:48;10.55;;;8.05;;
36423;SDS011;22458;45.328;9.514;2023-04-01T06:06:15;8.60;;;7.57;;
36423;SDS011;22458;45.328;9.514;2023-04-01T06:09:19;9.10;;;7.70;;
36423;SDS011;22458;45.328;9.514;2023-04-01T06:33:46;9.23;;;6.28;;
36423;SDS011;22458;45.328;9.514;2023-04-01T06:41:58;6.47;;;4.40;;
36423;SDS011;22458;45.328;9.514;2023-04-01T06:54:15;7.00;;;3.90;;
36423;SDS011;22458;45.328;9.514;2023-04-01T06:57:12;5.32;;;3.90;;
36423;SDS011;22458;45.328;9.514;2023-04-01T06:59:47;5.60;;;4.35;;
36423;SDS011;22458;45.328;9.514;2023-04-01T07:02:18;6.07;;;4.25;;
36423;SDS011;22458;45.328;9.514;2023-04-01T07:04:46;5.93;;;4.70;;
36423;SDS011;22458;45.328;9.514;2023-04-01T07:10:06;8.68;;;5.32;;
36423;SDS011;22458;45.328;9.514;2023-04-01T07:12:58;6.95;;;5.00;;
36423;SDS011;22458;45.328;9.514;2023-04-01T07:18:56;11.27;;;6.32;;
36423;SDS011;22458;45.328;9.514;2023-04-01T07:22:00;10.82;;;6.28;;
36423;SDS011;22458;45.328;9.514;2023-04-01T07:24:50;8.68;;;6.45;;
36423;SDS011;22458;45.328;9.514;2023-04-01T07:27:17;10.32;;;6.80;;
36423;SDS011;22458;45.328;9.514;2023-04-01T07:29:44;11.25;;;7.10;;
36423;SDS011;22458;45.328;9.514;2023-04-01T07:34:53;7.47;;;6.20;;
36423;SDS011;22458;45.328;9.514;2023-04-01T07:48:58;11.07;;;7.53;;
36423;SDS011;22458;45.328;9.514;2023-04-01T07:56:46;10.75;;;7.47;;
36423;SDS011;22458;45.328;9.514;2023-04-01T08:11:35;11.35;;;6.40;;
36423;SDS011;22458;45.328;9.514;2023-04-01T08:14:52;11.05;;;7.97;;
36423;SDS011;22458;45.328;9.514;2023-04-01T08:25:48;13.43;;;7.20;;
36423;SDS011;22458;45.328;9.514;2023-04-01T08:31:14;13.45;;;6.95;;
36423;SDS011;22458;45.328;9.514;2023-04-01T08:34:04;12.70;;;7.57;;
36423;SDS011;22458;45.328;9.514;2023-04-01T08:36:39;9.65;;;7.05;;
36423;SDS011;22458;45.328;9.514;2023-04-01T08:39:14;8.82;;;6.85;;
36423;SDS011;22458;45.328;9.514;2023-04-01T08:55:56;7.93;;;6.20;;
36423;SDS011;22458;45.328;9.514;2023-04-01T08:58:32;9.20;;;6.38;;
36423;SDS011;22458;45.328;9.514;2023-04-01T09:04:05;9.32;;;5.30;;
36423;SDS011;22458;45.328;9.514;2023-04-01T09:07:36;8.35;;;5.45;;
36423;SDS011;22458;45.328;9.514;2023-04-01T09:12:26;7.82;;;5.63;;
36423;SDS011;22458;45.328;9.514;2023-04-01T09:23:38;6.13;;;4.65;;
36423;SDS011;22458;45.328;9.514;2023-04-01T09:31:37;7.25;;;5.95;;
36423;SDS011;22458;45.328;9.514;2023-04-01T09:34:51;6.90;;;5.40;;
36423;SDS011;22458;45.328;9.514;2023-04-01T09:37:20;8.32;;;5.55;;
36423;SDS011;22458;45.328;9.514;2023-04-01T09:45:35;6.05;;;4.82;;
36423;SDS011;22458;45.328;9.514;2023-04-01T10:07:32;6.63;;;4.90;;
36423;SDS011;22458;45.328;9.514;2023-04-01T10:13:13;6.25;;;4.68;;
36423;SDS011;22458;45.328;9.514;2023-04-01T10:36:52;3.85;;;3.30;;
36423;SDS011;22458;45.328;9.514;2023-04-01T10:48:34;3.38;;;3.00;;
36423;SDS011;22458;45.328;9.514;2023-04-01T10:51:37;5.68;;;2.38;;
36423;SDS011;22458;45.328;9.514;2023-04-01T10:54:54;3.97;;;2.80;;
36423;SDS011;22458;45.328;9.514;2023-04-01T11:10:21;3.10;;;2.17;;
36423;SDS011;22458;45.328;9.514;2023-04-01T11:28:51;1.88;;;1.50;;
36423;SDS011;22458;45.328;9.514;2023-04-01T12:06:47;0.40;;;0.20;;
36423;SDS011;22458;45.328;9.514;2023-04-01T12:12:11;1.10;;;0.25;;
36423;SDS011;22458;45.328;9.514;2023-04-01T12:23:47;0.82;;;0.45;;
36423;SDS011;22458;45.328;9.514;2023-04-01T12:47:56;2.08;;;0.40;;
36423;SDS011;22458;45.328;9.514;2023-04-01T13:02:01;0.50;;;0.30;;
36423;SDS011;22458;45.328;9.514;2023-04-01T13:07:34;0.63;;;0.30;;
36423;SDS011;22458;45.328;9.514;2023-04-01T13:10:38;0.68;;;0.30;;
36423;SDS011;22458;45.328;9.514;2023-04-01T13:15:57;0.30;;;0.20;;
36423;SDS011;22458;45.328;9.514;2023-04-01T13:35:41;1.10;;;0.20;;
36423;SDS011;22458;45.328;9.514;2023-04-01T13:38:43;0.28;;;0.10;;
36423;SDS011;22458;45.328;9.514;2023-04-01T13:44:29;0.30;;;0.10;;
36423;SDS011;22458;45.328;9.514;2023-04-01T13:52:45;0.95;;;0.10;;
36423;SDS011;22458;45.328;9.514;2023-04-01T14:01:03;0.40;;;0.20;;
36423;SDS011;22458;45.328;9.514;2023-04-01T14:03:54;0.60;;;0.20;;
36423;SDS011;22458;45.328;9.514;2023-04-01T14:06:49;0.32;;;0.13;;
36423;SDS011;22458;45.328;9.514;2023-04-01T14:12:39;0.38;;;0.20;;
36423;SDS011;22458;45.328;9.514;2023-04-01T14:21:42;1.20;;;0.32;;
36423;SDS011;22458;45.328;9.514;2023-04-01T14:32:57;0.38;;;0.20;;
36423;SDS011;22458;45.328;9.514;2023-04-01T14:35:50;0.40;;;0.10;;
36423;SDS011;22458;45.328;9.514;2023-04-01T14:49:23;0.30;;;0.20;;
36423;SDS011;22458;45.328;9.514;2023-04-01T14:52:10;0.70;;;0.40;;
36423;SDS011;22458;45.328;9.514;2023-04-01T14:54:43;0.47;;;0.30;;
36423;SDS011;22458;45.328;9.514;2023-04-01T14:57:15;0.10;;;0.10;;
36423;SDS011;22458;45.328;9.514;2023-04-01T14:59:54;0.40;;;0.20;;
36423;SDS011;22458;45.328;9.514;2023-04-01T15:02:32;0.30;;;0.15;;
36423;SDS011;22458;45.328;9.514;2023-04-01T15:10:43;0.43;;;0.10;;
36423;SDS011;22458;45.328;9.514;2023-04-01T15:24:30;0.88;;;0.10;;
36423;SDS011;22458;45.328;9.514;2023-04-01T15:29:47;1.70;;;0.20;;
36423;SDS011;22458;45.328;9.514;2023-04-01T15:33:00;0.17;;;0.10;;
36423;SDS011;22458;45.328;9.514;2023-04-01T15:40:49;0.45;;;0.10;;
36423;SDS011;22458;45.328;9.514;2023-04-01T15:57:15;0.80;;;0.13;;
36423;SDS011;22458;45.328;9.514;2023-04-01T16:08:45;1.80;;;0.30;;
36423;SDS011;22458;45.328;9.514;2023-04-01T16:11:18;0.20;;;0.10;;
36423;SDS011;22458;45.328;9.514;2023-04-01T16:13:52;0.80;;;0.30;;
36423;SDS011;22458;45.328;9.514;2023-04-01T16:19:46;1.67;;;0.30;;
36423;SDS011;22458;45.328;9.514;2023-04-01T16:22:38;0.88;;;0.30;;
36423;SDS011;22458;45.328;9.514;2023-04-01T16:28:19;0.45;;;0.30;;
36423;SDS011;22458;45.328;9.514;2023-04-01T16:34:10;0.77;;;0.40;;
36423;SDS011;22458;45.328;9.514;2023-04-01T16:39:30;1.85;;;0.32;;
36423;SDS011;22458;45.328;9.514;2023-04-01T16:47:40;0.68;;;0.40;;
36423;SDS011;22458;45.328;9.514;2023-04-01T16:50:22;0.85;;;0.30;;
36423;SDS011;22458;45.328;9.514;2023-04-01T16:53:08;0.40;;;0.17;;
36423;SDS011;22458;45.328;9.514;2023-04-01T16:55:50;0.30;;;0.10;;
36423;SDS011;22458;45.328;9.514;2023-04-01T16:58:34;0.35;;;0.20;;
36423;SDS011;22458;45.328;9.514;2023-04-01T17:03:33;0.73;;;0.17;;
36423;SDS011;22458;45.328;9.514;2023-04-01T17:11:20;1.10;;;0.28;;
36423;SDS011;22458;45.328;9.514;2023-04-01T17:16:44;0.28;;;0.10;;
36423;SDS011;22458;45.328;9.514;2023-04-01T17:49:59;0.60;;;0.20;;
36423;SDS011;22458;45.328;9.514;2023-04-01T17:52:39;0.50;;;0.20;;
36423;SDS011;22458;45.328;9.514;2023-04-01T18:04:15;1.20;;;1.08;;
36423;SDS011;22458;45.328;9.514;2023-04-01T18:09:19;2.30;;;1.15;;
36423;SDS011;22458;45.328;9.514;2023-04-01T18:23:01;2.85;;;0.63;;
36423;SDS011;22458;45.328;9.514;2023-04-01T18:25:43;1.02;;;0.50;;
36423;SDS011;22458;45.328;9.514;2023-04-01T18:28:18;0.75;;;0.32;;
36423;SDS011;22458;45.328;9.514;2023-04-01T18:33:44;1.35;;;0.57;;
36423;SDS011;22458;45.328;9.514;2023-04-01T18:39:52;2.50;;;1.52;;
36423;SDS011;22458;45.328;9.514;2023-04-01T18:42:24;2.53;;;1.87;;
36423;SDS011;22458;45.328;9.514;2023-04-01T18:45:21;3.17;;;1.60;;
36423;SDS011;22458;45.328;9.514;2023-04-01T18:47:56;2.85;;;1.55;;
36423;SDS011;22458;45.328;9.514;2023-04-01T18:50:29;3.75;;;2.13;;
36423;SDS011;22458;45.328;9.514;2023-04-01T18:56:03;3.13;;;1.10;;
36423;SDS011;22458;45.328;9.514;2023-04-01T19:04:07;2.75;;;1.90;;
36423;SDS011;22458;45.328;9.514;2023-04-01T19:06:50;2.72;;;1.80;;
36423;SDS011;22458;45.328;9.514;2023-04-01T19:09:24;4.10;;;1.40;;
36423;SDS011;22458;45.328;9.514;2023-04-01T19:25:53;2.08;;;1.42;;
36423;SDS011;22458;45.328;9.514;2023-04-01T19:38:40;5.28;;;2.13;;
36423;SDS011;22458;45.328;9.514;2023-04-01T19:46:12;3.30;;;1.30;;
36423;SDS011;22458;45.328;9.514;2023-04-01T19:59:38;2.83;;;1.17;;
36423;SDS011;22458;45.328;9.514;2023-04-01T20:07:21;3.05;;;1.10;;
36423;SDS011;22458;45.328;9.514;2023-04-01T20:13:13;1.95;;;1.17;;
36423;SDS011;22458;45.328;9.514;2023-04-01T20:15:43;3.60;;;1.63;;
36423;SDS011;22458;45.328;9.514;2023-04-01T20:18:21;3.65;;;1.60;;
36423;SDS011;22458;45.328;9.514;2023-04-01T20:21:00;4.47;;;1.58;;
36423;SDS011;22458;45.328;9.514;2023-04-01T20:26:21;3.28;;;1.70;;
36423;SDS011;22458;45.328;9.514;2023-04-01T20:31:47;2.05;;;1.60;;
36423;SDS011;22458;45.328;9.514;2023-04-01T20:34:33;3.00;;;1.65;;
36423;SDS011;22458;45.328;9.514;2023-04-01T20:37:41;5.20;;;2.03;;
36423;SDS011;22458;45.328;9.514;2023-04-01T20:40:37;4.18;;;1.77;;
36423;SDS011;22458;45.328;9.514;2023-04-01T20:45:58;2.80;;;1.83;;
36423;SDS011;22458;45.328;9.514;2023-04-01T20:51:26;2.67;;;1.50;;
36423;SDS011;22458;45.328;9.514;2023-04-01T20:54:18;3.40;;;1.70;;
36423;SDS011;22458;45.328;9.514;2023-04-01T21:05:45;4.75;;;2.42;;
36423;SDS011;22458;45.328;9.514;2023-04-01T21:20:00;2.42;;;1.67;;
36423;SDS011;22458;45.328;9.514;2023-04-01T21:22:44;2.70;;;1.30;;
36423;SDS011;22458;45.328;9.514;2023-04-01T21:28:12;2.22;;;1.55;;
36423;SDS011;22458;45.328;9.514;2023-04-01T21:45:15;3.67;;;1.70;;
36423;SDS011;22458;45.328;9.514;2023-04-01T21:56:29;4.03;;;1.63;;
36423;SDS011;22458;45.328;9.514;2023-04-01T22:04:58;3.17;;;1.45;;
36423;SDS011;22458;45.328;9.514;2023-04-01T22:07:37;1.83;;;1.55;;
36423;SDS011;22458;45.328;9.514;2023-04-01T22:18:13;1.38;;;1.00;;
36423;SDS011;22458;45.328;9.514;2023-04-01T22:21:21;2.50;;;1.00;;
36423;SDS011;22458;45.328;9.514;2023-04-01T22:26:50;3.72;;;1.27;;
36423;SDS011;22458;45.328;9.514;2023-04-01T22:37:09;1.65;;;1.20;;
36423;SDS011;22458;45.328;9.514;2023-04-01T22:40:32;2.03;;;1.10;;
36423;SDS011;22458;45.328;9.514;2023-04-01T22:47:55;2.55;;;1.52;;
36423;SDS011;22458;45.328;9.514;2023-04-01T22:50:32;3.00;;;1.55;;
36423;SDS011;22458;45.328;9.514;2023-04-01T22:53:27;2.70;;;1.17;;
36423;SDS011;22458;45.328;9.514;2023-04-01T22:55:50;1.55;;;1.20;;
36423;SDS011;22458;45.328;9.514;2023-04-01T22:58:34;1.80;;;1.15;;
36423;SDS011;22458;45.328;9.514;2023-04-01T23:01:06;4.80;;;1.33;;
36423;SDS011;22458;45.328;9.514;2023-04-01T23:03:40;1.25;;;0.90;;
36423;SDS011;22458;45.328;9.514;2023-04-01T23:06:10;1.90;;;1.42;;
36423;SDS011;22458;45.328;9.514;2023-04-01T23:11:14;2.65;;;0.88;;
36423;SDS011;22458;45.328;9.514;2023-04-01T23:16:54;2.63;;;1.25;;
36423;SDS011;22458;45.328;9.514;2023-04-01T23:19:30;2.58;;;1.45;;
36423;SDS011;22458;45.328;9.514;2023-04-01T23:22:35;2.70;;;1.40;;
36423;SDS011;22458;45.328;9.514;2023-04-01T23:30:46;3.67;;;1.80;;
36423;SDS011;22458;45.328;9.514;2023-04-01T23:35:57;4.68;;;1.52;;
36423;SDS011;22458;45.328;9.514;2023-04-01T23:38:31;3.35;;;1.83;;
36423;SDS011;22458;45.328;9.514;2023-04-01T23:41:01;2.97;;;1.40;;
36423;SDS011;22458;45.328;9.514;2023-04-01T23:43:36;5.97;;;1.55;;
36423;SDS011;22458;45.328;9.514;2023-04-01T23:46:05;2.88;;;1.52;;
36423;SDS011;22458;45.328;9.514;2023-04-01T23:48:44;3.13;;;1.58;;
36423;SDS011;22458;45.328;9.514;2023-04-01T23:51:19;2.88;;;1.90;;
36423;SDS011;22458;45.328;9.514;2023-04-01T23:53:46;2.78;;;2.03;;
36423;SDS011;22458;45.328;9.514;2023-04-01T23:56:16;1.55;;;1.40;;
36423;SDS011;22458;45.328;9.514;2023-04-01T23:58:47;3.45;;;1.65;;
